sensor_id;sensor_type;location;lat;lon;timestamp;temperature;humidity
4425;DHT22;2225;53.568;13.266;2022-11-14T00:01:19;12.50;94.00
4425;DHT22;2225;53.568;13.266;2022-11-14T00:04:04;12.40;94.10
4425;DHT22;2225;53.568;13.266;2022-11-14T00:06:50;12.40;94.20
4425;DHT22;2225;53.568;13.266;2022-11-14T00:09:35;12.40;94.30
4425;DHT22;2225;53.568;13.266;2022-11-14T00:12:22;12.30;94.30
4425;DHT22;2225;53.568;13.266;2022-11-14T00:15:08;12.30;94.40
4425;DHT22;2225;53.568;13.266;2022-11-14T00:17:54;12.30;94.40
4425;DHT22;2225;53.568;13.266;2022-11-14T00:20:40;12.30;94.30
4425;DHT22;2225;53.568;13.266;2022-11-14T00:23:25;12.30;94.30
4425;DHT22;2225;53.568;13.266;2022-11-14T00:26:10;12.40;94.40
4425;DHT22;2225;53.568;13.266;2022-11-14T00:28:56;12.30;94.30
4425;DHT22;2225;53.568;13.266;2022-11-14T00:31:42;12.30;94.10
4425;DHT22;2225;53.568;13.266;2022-11-14T00:34:27;12.30;94.10
4425;DHT22;2225;53.568;13.266;2022-11-14T00:37:12;12.20;94.20
4425;DHT22;2225;53.568;13.266;2022-11-14T00:39:57;12.20;94.30
4425;DHT22;2225;53.568;13.266;2022-11-14T00:42:43;12.10;94.40
4425;DHT22;2225;53.568;13.266;2022-11-14T00:45:29;12.20;94.40
4425;DHT22;2225;53.568;13.266;2022-11-14T00:48:15;12.20;94.40
4425;DHT22;2225;53.568;13.266;2022-11-14T00:51:00;12.20;94.30
4425;DHT22;2225;53.568;13.266;2022-11-14T00:53:46;12.20;94.30
4425;DHT22;2225;53.568;13.266;2022-11-14T00:56:31;12.10;94.30
4425;DHT22;2225;53.568;13.266;2022-11-14T00:59:16;12.10;94.40
4425;DHT22;2225;53.568;13.266;2022-11-14T01:02:01;12.10;94.30
4425;DHT22;2225;53.568;13.266;2022-11-14T01:04:47;12.10;94.40
4425;DHT22;2225;53.568;13.266;2022-11-14T01:07:32;12.10;94.60
4425;DHT22;2225;53.568;13.266;2022-11-14T01:10:17;12.10;94.30
4425;DHT22;2225;53.568;13.266;2022-11-14T01:13:03;12.10;94.30
4425;DHT22;2225;53.568;13.266;2022-11-14T01:15:49;12.10;94.40
4425;DHT22;2225;53.568;13.266;2022-11-14T01:18:35;12.10;94.50
4425;DHT22;2225;53.568;13.266;2022-11-14T01:21:21;12.10;94.30
4425;DHT22;2225;53.568;13.266;2022-11-14T01:24:07;12.10;94.10
4425;DHT22;2225;53.568;13.266;2022-11-14T01:26:54;12.10;94.00
4425;DHT22;2225;53.568;13.266;2022-11-14T01:29:40;12.00;94.00
4425;DHT22;2225;53.568;13.266;2022-11-14T01:32:26;12.00;94.10
4425;DHT22;2225;53.568;13.266;2022-11-14T01:35:11;12.00;94.20
4425;DHT22;2225;53.568;13.266;2022-11-14T01:37:57;11.90;94.10
4425;DHT22;2225;53.568;13.266;2022-11-14T01:40:45;11.90;94.10
4425;DHT22;2225;53.568;13.266;2022-11-14T01:43:35;11.80;94.00
4425;DHT22;2225;53.568;13.266;2022-11-14T01:46:31;11.80;94.00
4425;DHT22;2225;53.568;13.266;2022-11-14T01:49:22;11.80;94.10
4425;DHT22;2225;53.568;13.266;2022-11-14T01:52:13;11.70;94.00
4425;DHT22;2225;53.568;13.266;2022-11-14T01:55:04;11.60;94.00
4425;DHT22;2225;53.568;13.266;2022-11-14T01:57:51;11.60;94.10
4425;DHT22;2225;53.568;13.266;2022-11-14T02:00:36;11.60;94.10
4425;DHT22;2225;53.568;13.266;2022-11-14T02:03:22;11.60;94.00
4425;DHT22;2225;53.568;13.266;2022-11-14T02:06:09;11.60;94.00
4425;DHT22;2225;53.568;13.266;2022-11-14T02:09:00;11.60;94.10
4425;DHT22;2225;53.568;13.266;2022-11-14T02:11:49;11.50;94.00
4425;DHT22;2225;53.568;13.266;2022-11-14T02:14:36;11.50;94.20
4425;DHT22;2225;53.568;13.266;2022-11-14T02:17:22;11.50;94.20
4425;DHT22;2225;53.568;13.266;2022-11-14T02:20:23;11.60;94.20
4425;DHT22;2225;53.568;13.266;2022-11-14T02:23:12;11.60;94.30
4425;DHT22;2225;53.568;13.266;2022-11-14T02:25:58;11.60;94.10
4425;DHT22;2225;53.568;13.266;2022-11-14T02:28:44;11.60;93.90
4425;DHT22;2225;53.568;13.266;2022-11-14T02:31:30;11.60;93.90
4425;DHT22;2225;53.568;13.266;2022-11-14T02:34:15;11.60;93.90
4425;DHT22;2225;53.568;13.266;2022-11-14T02:37:05;11.60;93.70
4425;DHT22;2225;53.568;13.266;2022-11-14T02:39:50;11.60;93.80
4425;DHT22;2225;53.568;13.266;2022-11-14T02:42:36;11.60;93.80
4425;DHT22;2225;53.568;13.266;2022-11-14T02:45:21;11.50;93.70
4425;DHT22;2225;53.568;13.266;2022-11-14T02:48:07;11.50;93.70
4425;DHT22;2225;53.568;13.266;2022-11-14T02:50:52;11.50;93.80
4425;DHT22;2225;53.568;13.266;2022-11-14T02:53:37;11.50;93.80
4425;DHT22;2225;53.568;13.266;2022-11-14T02:56:23;11.50;93.80
4425;DHT22;2225;53.568;13.266;2022-11-14T02:59:08;11.40;93.80
4425;DHT22;2225;53.568;13.266;2022-11-14T03:01:54;11.40;93.80
4425;DHT22;2225;53.568;13.266;2022-11-14T03:04:40;11.40;94.10
4425;DHT22;2225;53.568;13.266;2022-11-14T03:07:25;11.30;93.80
4425;DHT22;2225;53.568;13.266;2022-11-14T03:10:11;11.30;93.80
4425;DHT22;2225;53.568;13.266;2022-11-14T03:12:58;11.30;93.90
4425;DHT22;2225;53.568;13.266;2022-11-14T03:15:43;11.30;93.90
4425;DHT22;2225;53.568;13.266;2022-11-14T03:18:29;11.20;94.00
4425;DHT22;2225;53.568;13.266;2022-11-14T03:21:17;11.20;94.00
4425;DHT22;2225;53.568;13.266;2022-11-14T03:24:04;11.20;94.00
4425;DHT22;2225;53.568;13.266;2022-11-14T03:26:49;11.20;94.30
4425;DHT22;2225;53.568;13.266;2022-11-14T03:29:34;11.20;94.10
4425;DHT22;2225;53.568;13.266;2022-11-14T03:32:20;11.20;94.10
4425;DHT22;2225;53.568;13.266;2022-11-14T03:35:06;11.20;94.10
4425;DHT22;2225;53.568;13.266;2022-11-14T03:37:51;11.20;94.10
4425;DHT22;2225;53.568;13.266;2022-11-14T03:40:40;11.20;94.10
4425;DHT22;2225;53.568;13.266;2022-11-14T03:43:30;11.20;94.00
4425;DHT22;2225;53.568;13.266;2022-11-14T03:46:17;11.20;94.00
4425;DHT22;2225;53.568;13.266;2022-11-14T03:49:03;11.20;94.00
4425;DHT22;2225;53.568;13.266;2022-11-14T03:51:49;11.20;93.90
4425;DHT22;2225;53.568;13.266;2022-11-14T03:54:35;11.20;94.00
4425;DHT22;2225;53.568;13.266;2022-11-14T03:57:20;11.20;94.00
4425;DHT22;2225;53.568;13.266;2022-11-14T04:00:06;11.20;94.00
4425;DHT22;2225;53.568;13.266;2022-11-14T04:02:56;11.20;94.00
4425;DHT22;2225;53.568;13.266;2022-11-14T04:05:45;11.20;94.00
4425;DHT22;2225;53.568;13.266;2022-11-14T04:08:30;11.20;94.00
4425;DHT22;2225;53.568;13.266;2022-11-14T04:11:18;11.30;94.00
4425;DHT22;2225;53.568;13.266;2022-11-14T04:14:03;11.30;94.00
4425;DHT22;2225;53.568;13.266;2022-11-14T04:16:48;11.30;94.00
4425;DHT22;2225;53.568;13.266;2022-11-14T04:19:34;11.20;94.00
4425;DHT22;2225;53.568;13.266;2022-11-14T04:22:19;11.20;94.00
4425;DHT22;2225;53.568;13.266;2022-11-14T04:25:06;11.20;94.00
4425;DHT22;2225;53.568;13.266;2022-11-14T04:27:52;11.20;94.10
4425;DHT22;2225;53.568;13.266;2022-11-14T04:30:38;11.20;94.10
4425;DHT22;2225;53.568;13.266;2022-11-14T04:33:23;11.20;94.10
4425;DHT22;2225;53.568;13.266;2022-11-14T04:36:08;11.20;94.10
4425;DHT22;2225;53.568;13.266;2022-11-14T04:38:54;11.20;94.20
4425;DHT22;2225;53.568;13.266;2022-11-14T04:41:39;11.20;94.20
4425;DHT22;2225;53.568;13.266;2022-11-14T04:44:24;11.20;94.30
4425;DHT22;2225;53.568;13.266;2022-11-14T04:47:10;11.20;94.30
4425;DHT22;2225;53.568;13.266;2022-11-14T04:49:55;11.20;94.40
4425;DHT22;2225;53.568;13.266;2022-11-14T04:52:40;11.20;94.40
4425;DHT22;2225;53.568;13.266;2022-11-14T04:55:26;11.20;94.40
4425;DHT22;2225;53.568;13.266;2022-11-14T04:58:11;11.10;94.80
4425;DHT22;2225;53.568;13.266;2022-11-14T05:00:56;11.00;94.60
4425;DHT22;2225;53.568;13.266;2022-11-14T05:03:42;11.10;94.70
4425;DHT22;2225;53.568;13.266;2022-11-14T05:06:27;11.00;94.70
4425;DHT22;2225;53.568;13.266;2022-11-14T05:09:13;11.00;94.70
4425;DHT22;2225;53.568;13.266;2022-11-14T05:11:58;11.00;94.80
4425;DHT22;2225;53.568;13.266;2022-11-14T05:14:44;11.10;94.70
4425;DHT22;2225;53.568;13.266;2022-11-14T05:17:29;11.10;94.70
4425;DHT22;2225;53.568;13.266;2022-11-14T05:20:14;11.00;94.70
4425;DHT22;2225;53.568;13.266;2022-11-14T05:23:00;11.00;94.80
4425;DHT22;2225;53.568;13.266;2022-11-14T05:25:46;11.00;94.90
4425;DHT22;2225;53.568;13.266;2022-11-14T05:28:31;10.90;94.90
4425;DHT22;2225;53.568;13.266;2022-11-14T05:31:17;10.90;95.30
4425;DHT22;2225;53.568;13.266;2022-11-14T05:34:02;11.00;95.00
4425;DHT22;2225;53.568;13.266;2022-11-14T05:36:48;11.00;95.10
4425;DHT22;2225;53.568;13.266;2022-11-14T05:39:33;11.00;95.00
4425;DHT22;2225;53.568;13.266;2022-11-14T05:42:18;11.00;94.90
4425;DHT22;2225;53.568;13.266;2022-11-14T05:45:04;11.00;94.80
4425;DHT22;2225;53.568;13.266;2022-11-14T05:47:51;11.10;94.80
4425;DHT22;2225;53.568;13.266;2022-11-14T05:50:38;11.10;94.80
4425;DHT22;2225;53.568;13.266;2022-11-14T05:53:24;11.10;94.80
4425;DHT22;2225;53.568;13.266;2022-11-14T05:56:11;11.10;94.90
4425;DHT22;2225;53.568;13.266;2022-11-14T05:58:57;11.10;94.80
4425;DHT22;2225;53.568;13.266;2022-11-14T06:01:42;11.10;94.90
4425;DHT22;2225;53.568;13.266;2022-11-14T06:04:28;11.00;94.90
4425;DHT22;2225;53.568;13.266;2022-11-14T06:07:13;11.00;94.90
4425;DHT22;2225;53.568;13.266;2022-11-14T06:10:04;11.00;94.90
4425;DHT22;2225;53.568;13.266;2022-11-14T06:12:50;11.00;95.10
4425;DHT22;2225;53.568;13.266;2022-11-14T06:15:35;10.90;95.00
4425;DHT22;2225;53.568;13.266;2022-11-14T06:18:20;10.90;95.10
4425;DHT22;2225;53.568;13.266;2022-11-14T06:21:09;10.90;95.20
4425;DHT22;2225;53.568;13.266;2022-11-14T06:23:56;10.90;95.30
4425;DHT22;2225;53.568;13.266;2022-11-14T06:26:41;10.90;95.30
4425;DHT22;2225;53.568;13.266;2022-11-14T06:29:27;10.90;95.60
4425;DHT22;2225;53.568;13.266;2022-11-14T06:32:20;10.90;95.30
4425;DHT22;2225;53.568;13.266;2022-11-14T06:35:05;10.90;95.30
4425;DHT22;2225;53.568;13.266;2022-11-14T06:37:52;10.90;95.30
4425;DHT22;2225;53.568;13.266;2022-11-14T06:40:38;10.90;95.30
4425;DHT22;2225;53.568;13.266;2022-11-14T06:43:23;10.80;95.30
4425;DHT22;2225;53.568;13.266;2022-11-14T06:46:11;10.80;95.40
4425;DHT22;2225;53.568;13.266;2022-11-14T06:48:57;10.80;95.50
4425;DHT22;2225;53.568;13.266;2022-11-14T06:51:42;10.70;95.50
4425;DHT22;2225;53.568;13.266;2022-11-14T06:54:28;10.70;95.60
4425;DHT22;2225;53.568;13.266;2022-11-14T06:57:13;10.70;95.60
4425;DHT22;2225;53.568;13.266;2022-11-14T06:59:58;10.70;95.60
4425;DHT22;2225;53.568;13.266;2022-11-14T07:02:45;10.70;95.50
4425;DHT22;2225;53.568;13.266;2022-11-14T07:05:31;10.80;95.50
4425;DHT22;2225;53.568;13.266;2022-11-14T07:08:16;10.80;95.40
4425;DHT22;2225;53.568;13.266;2022-11-14T07:11:10;10.80;95.50
4425;DHT22;2225;53.568;13.266;2022-11-14T07:14:07;10.80;95.40
4425;DHT22;2225;53.568;13.266;2022-11-14T07:16:53;10.80;95.40
4425;DHT22;2225;53.568;13.266;2022-11-14T07:19:38;10.80;95.40
4425;DHT22;2225;53.568;13.266;2022-11-14T07:22:23;10.90;95.40
4425;DHT22;2225;53.568;13.266;2022-11-14T07:25:09;10.90;95.50
4425;DHT22;2225;53.568;13.266;2022-11-14T07:27:56;10.80;95.50
4425;DHT22;2225;53.568;13.266;2022-11-14T07:30:42;10.80;95.50
4425;DHT22;2225;53.568;13.266;2022-11-14T07:33:29;10.80;95.30
4425;DHT22;2225;53.568;13.266;2022-11-14T07:36:16;10.80;95.30
4425;DHT22;2225;53.568;13.266;2022-11-14T07:39:02;10.80;95.30
4425;DHT22;2225;53.568;13.266;2022-11-14T07:41:48;10.70;95.30
4425;DHT22;2225;53.568;13.266;2022-11-14T07:44:33;10.70;95.40
4425;DHT22;2225;53.568;13.266;2022-11-14T07:47:18;10.70;95.40
4425;DHT22;2225;53.568;13.266;2022-11-14T07:50:03;10.80;95.40
4425;DHT22;2225;53.568;13.266;2022-11-14T07:52:50;10.90;95.40
4425;DHT22;2225;53.568;13.266;2022-11-14T07:55:37;11.00;95.30
4425;DHT22;2225;53.568;13.266;2022-11-14T07:58:23;11.00;95.20
4425;DHT22;2225;53.568;13.266;2022-11-14T08:01:10;11.00;95.10
4425;DHT22;2225;53.568;13.266;2022-11-14T08:03:56;10.90;95.10
4425;DHT22;2225;53.568;13.266;2022-11-14T08:06:41;10.90;95.20
4425;DHT22;2225;53.568;13.266;2022-11-14T08:09:27;10.90;95.30
4425;DHT22;2225;53.568;13.266;2022-11-14T08:12:12;10.90;95.40
4425;DHT22;2225;53.568;13.266;2022-11-14T08:14:58;10.90;95.40
4425;DHT22;2225;53.568;13.266;2022-11-14T08:17:43;11.00;95.40
4425;DHT22;2225;53.568;13.266;2022-11-14T08:20:28;11.10;95.30
4425;DHT22;2225;53.568;13.266;2022-11-14T08:23:14;11.10;95.20
4425;DHT22;2225;53.568;13.266;2022-11-14T08:25:59;11.10;95.20
4425;DHT22;2225;53.568;13.266;2022-11-14T08:28:45;11.20;95.20
4425;DHT22;2225;53.568;13.266;2022-11-14T08:31:30;11.20;95.30
4425;DHT22;2225;53.568;13.266;2022-11-14T08:34:15;11.20;95.20
4425;DHT22;2225;53.568;13.266;2022-11-14T08:37:02;11.20;95.20
4425;DHT22;2225;53.568;13.266;2022-11-14T08:39:47;11.20;95.20
4425;DHT22;2225;53.568;13.266;2022-11-14T08:42:32;11.20;95.10
4425;DHT22;2225;53.568;13.266;2022-11-14T08:45:17;11.30;95.10
4425;DHT22;2225;53.568;13.266;2022-11-14T08:48:03;11.20;95.00
4425;DHT22;2225;53.568;13.266;2022-11-14T08:50:49;11.30;95.00
4425;DHT22;2225;53.568;13.266;2022-11-14T08:53:35;11.30;95.00
4425;DHT22;2225;53.568;13.266;2022-11-14T08:56:20;11.30;94.70
4425;DHT22;2225;53.568;13.266;2022-11-14T08:59:05;11.30;94.80
4425;DHT22;2225;53.568;13.266;2022-11-14T09:01:50;11.30;94.70
4425;DHT22;2225;53.568;13.266;2022-11-14T09:04:36;11.30;94.80
4425;DHT22;2225;53.568;13.266;2022-11-14T09:07:22;11.30;94.80
4425;DHT22;2225;53.568;13.266;2022-11-14T09:10:08;11.30;94.80
4425;DHT22;2225;53.568;13.266;2022-11-14T09:12:57;11.30;94.80
4425;DHT22;2225;53.568;13.266;2022-11-14T09:15:43;11.30;94.80
4425;DHT22;2225;53.568;13.266;2022-11-14T09:18:29;11.30;94.70
4425;DHT22;2225;53.568;13.266;2022-11-14T09:21:16;11.30;94.70
4425;DHT22;2225;53.568;13.266;2022-11-14T09:24:01;11.30;94.70
4425;DHT22;2225;53.568;13.266;2022-11-14T09:26:46;11.40;94.70
4425;DHT22;2225;53.568;13.266;2022-11-14T09:29:41;11.40;94.80
4425;DHT22;2225;53.568;13.266;2022-11-14T09:32:26;11.40;94.60
4425;DHT22;2225;53.568;13.266;2022-11-14T09:35:11;11.50;94.60
4425;DHT22;2225;53.568;13.266;2022-11-14T09:38:05;11.50;94.50
4425;DHT22;2225;53.568;13.266;2022-11-14T09:44:25;11.70;94.20
4425;DHT22;2225;53.568;13.266;2022-11-14T09:47:35;11.70;93.90
4425;DHT22;2225;53.568;13.266;2022-11-14T09:50:27;11.70;94.00
4425;DHT22;2225;53.568;13.266;2022-11-14T09:53:25;11.60;94.10
4425;DHT22;2225;53.568;13.266;2022-11-14T09:56:19;11.70;94.10
4425;DHT22;2225;53.568;13.266;2022-11-14T09:59:12;11.70;94.20
4425;DHT22;2225;53.568;13.266;2022-11-14T10:12:24;12.00;94.00
4425;DHT22;2225;53.568;13.266;2022-11-14T10:15:42;12.00;93.80
4425;DHT22;2225;53.568;13.266;2022-11-14T10:22:25;12.20;93.40
4425;DHT22;2225;53.568;13.266;2022-11-14T10:26:06;12.20;93.40
4425;DHT22;2225;53.568;13.266;2022-11-14T10:29:04;12.30;93.20
4425;DHT22;2225;53.568;13.266;2022-11-14T10:35:30;12.30;93.20
4425;DHT22;2225;53.568;13.266;2022-11-14T10:38:40;12.30;93.20
4425;DHT22;2225;53.568;13.266;2022-11-14T10:41:29;12.30;93.40
4425;DHT22;2225;53.568;13.266;2022-11-14T10:44:40;12.30;93.40
4425;DHT22;2225;53.568;13.266;2022-11-14T10:47:37;12.40;93.40
4425;DHT22;2225;53.568;13.266;2022-11-14T10:50:50;12.50;93.40
4425;DHT22;2225;53.568;13.266;2022-11-14T10:53:49;12.60;93.20
4425;DHT22;2225;53.568;13.266;2022-11-14T10:56:53;12.70;92.80
4425;DHT22;2225;53.568;13.266;2022-11-14T10:59:39;12.70;92.30
4425;DHT22;2225;53.568;13.266;2022-11-14T11:02:24;12.70;92.10
4425;DHT22;2225;53.568;13.266;2022-11-14T11:05:15;12.60;92.20
4425;DHT22;2225;53.568;13.266;2022-11-14T11:08:10;12.40;92.50
4425;DHT22;2225;53.568;13.266;2022-11-14T11:11:28;12.40;92.70
4425;DHT22;2225;53.568;13.266;2022-11-14T11:14:17;12.40;92.80
4425;DHT22;2225;53.568;13.266;2022-11-14T11:20:26;12.20;92.80
4425;DHT22;2225;53.568;13.266;2022-11-14T11:23:19;12.20;93.10
4425;DHT22;2225;53.568;13.266;2022-11-14T11:26:16;12.20;93.10
4425;DHT22;2225;53.568;13.266;2022-11-14T11:29:15;12.30;93.00
4425;DHT22;2225;53.568;13.266;2022-11-14T11:32:02;12.30;93.00
4425;DHT22;2225;53.568;13.266;2022-11-14T11:34:48;12.30;93.00
4425;DHT22;2225;53.568;13.266;2022-11-14T11:37:40;12.30;92.90
4425;DHT22;2225;53.568;13.266;2022-11-14T11:40:29;12.40;93.00
4425;DHT22;2225;53.568;13.266;2022-11-14T11:43:32;12.40;92.90
4425;DHT22;2225;53.568;13.266;2022-11-14T11:49:47;12.40;92.80
4425;DHT22;2225;53.568;13.266;2022-11-14T11:55:55;12.50;92.70
4425;DHT22;2225;53.568;13.266;2022-11-14T11:58:49;12.50;92.70
4425;DHT22;2225;53.568;13.266;2022-11-14T12:01:35;12.50;92.80
4425;DHT22;2225;53.568;13.266;2022-11-14T12:04:21;12.60;92.80
4425;DHT22;2225;53.568;13.266;2022-11-14T12:07:24;12.60;92.80
4425;DHT22;2225;53.568;13.266;2022-11-14T12:10:44;12.60;92.70
4425;DHT22;2225;53.568;13.266;2022-11-14T12:13:46;12.60;92.50
4425;DHT22;2225;53.568;13.266;2022-11-14T12:16:59;12.70;92.70
4425;DHT22;2225;53.568;13.266;2022-11-14T12:27:07;12.80;92.40
4425;DHT22;2225;53.568;13.266;2022-11-14T12:30:14;12.90;92.50
4425;DHT22;2225;53.568;13.266;2022-11-14T12:33:09;12.90;92.50
4425;DHT22;2225;53.568;13.266;2022-11-14T12:35:58;13.00;92.50
4425;DHT22;2225;53.568;13.266;2022-11-14T12:38:52;13.00;92.30
4425;DHT22;2225;53.568;13.266;2022-11-14T12:41:39;13.00;92.20
4425;DHT22;2225;53.568;13.266;2022-11-14T12:47:19;13.00;92.30
4425;DHT22;2225;53.568;13.266;2022-11-14T12:50:31;13.00;92.20
4425;DHT22;2225;53.568;13.266;2022-11-14T12:56:38;13.10;92.10
4425;DHT22;2225;53.568;13.266;2022-11-14T12:59:48;13.10;92.10
4425;DHT22;2225;53.568;13.266;2022-11-14T13:02:48;13.10;91.80
4425;DHT22;2225;53.568;13.266;2022-11-14T13:05:53;13.00;91.80
4425;DHT22;2225;53.568;13.266;2022-11-14T13:12:31;12.90;92.00
4425;DHT22;2225;53.568;13.266;2022-11-14T13:19:11;12.90;92.20
4425;DHT22;2225;53.568;13.266;2022-11-14T13:22:38;12.90;92.30
4425;DHT22;2225;53.568;13.266;2022-11-14T13:25:24;12.90;92.30
4425;DHT22;2225;53.568;13.266;2022-11-14T13:28:48;12.80;92.60
4425;DHT22;2225;53.568;13.266;2022-11-14T13:34:41;12.90;92.30
4425;DHT22;2225;53.568;13.266;2022-11-14T13:48:15;12.80;92.50
4425;DHT22;2225;53.568;13.266;2022-11-14T13:51:13;12.80;92.60
4425;DHT22;2225;53.568;13.266;2022-11-14T13:54:20;12.70;92.60
4425;DHT22;2225;53.568;13.266;2022-11-14T13:57:19;12.70;92.60
4425;DHT22;2225;53.568;13.266;2022-11-14T14:00:15;12.70;92.60
4425;DHT22;2225;53.568;13.266;2022-11-14T14:03:30;12.70;92.70
4425;DHT22;2225;53.568;13.266;2022-11-14T14:10:16;12.70;92.70
4425;DHT22;2225;53.568;13.266;2022-11-14T14:13:21;12.70;92.70
4425;DHT22;2225;53.568;13.266;2022-11-14T14:26:38;12.70;92.80
4425;DHT22;2225;53.568;13.266;2022-11-14T14:35:53;12.70;92.80
4425;DHT22;2225;53.568;13.266;2022-11-14T14:38:38;12.60;92.80
4425;DHT22;2225;53.568;13.266;2022-11-14T14:41:25;12.60;92.80
4425;DHT22;2225;53.568;13.266;2022-11-14T14:44:27;12.60;92.80
4425;DHT22;2225;53.568;13.266;2022-11-14T14:50:23;12.60;92.80
4425;DHT22;2225;53.568;13.266;2022-11-14T14:53:25;12.60;92.80
4425;DHT22;2225;53.568;13.266;2022-11-14T14:56:21;12.60;92.80
4425;DHT22;2225;53.568;13.266;2022-11-14T14:59:18;12.50;92.80
4425;DHT22;2225;53.568;13.266;2022-11-14T15:02:13;12.50;92.90
4425;DHT22;2225;53.568;13.266;2022-11-14T15:05:01;12.50;92.90
4425;DHT22;2225;53.568;13.266;2022-11-14T15:07:48;12.40;92.90
4425;DHT22;2225;53.568;13.266;2022-11-14T15:10:35;12.40;92.90
4425;DHT22;2225;53.568;13.266;2022-11-14T15:13:22;12.30;93.00
4425;DHT22;2225;53.568;13.266;2022-11-14T15:16:08;12.30;93.10
4425;DHT22;2225;53.568;13.266;2022-11-14T15:18:56;12.20;93.10
4425;DHT22;2225;53.568;13.266;2022-11-14T15:21:42;12.20;93.20
4425;DHT22;2225;53.568;13.266;2022-11-14T15:24:28;12.10;93.30
4425;DHT22;2225;53.568;13.266;2022-11-14T15:27:15;12.10;93.30
4425;DHT22;2225;53.568;13.266;2022-11-14T15:30:05;12.10;93.40
4425;DHT22;2225;53.568;13.266;2022-11-14T15:32:54;12.00;93.50
4425;DHT22;2225;53.568;13.266;2022-11-14T15:35:44;12.00;93.40
4425;DHT22;2225;53.568;13.266;2022-11-14T15:38:29;11.90;93.40
4425;DHT22;2225;53.568;13.266;2022-11-14T15:41:32;11.90;93.50
4425;DHT22;2225;53.568;13.266;2022-11-14T15:44:31;11.90;93.50
4425;DHT22;2225;53.568;13.266;2022-11-14T15:47:28;11.90;93.60
4425;DHT22;2225;53.568;13.266;2022-11-14T15:53:15;11.80;93.50
4425;DHT22;2225;53.568;13.266;2022-11-14T15:56:04;11.80;93.50
4425;DHT22;2225;53.568;13.266;2022-11-14T15:58:49;11.70;93.50
4425;DHT22;2225;53.568;13.266;2022-11-14T16:01:35;11.70;93.60
4425;DHT22;2225;53.568;13.266;2022-11-14T16:04:27;11.70;93.70
4425;DHT22;2225;53.568;13.266;2022-11-14T16:07:15;11.70;93.70
4425;DHT22;2225;53.568;13.266;2022-11-14T16:10:02;11.60;93.70
4425;DHT22;2225;53.568;13.266;2022-11-14T16:12:48;11.60;93.70
4425;DHT22;2225;53.568;13.266;2022-11-14T16:15:37;11.60;93.70
4425;DHT22;2225;53.568;13.266;2022-11-14T16:18:22;11.60;93.70
4425;DHT22;2225;53.568;13.266;2022-11-14T16:21:11;11.60;93.60
4425;DHT22;2225;53.568;13.266;2022-11-14T16:24:00;11.60;93.60
4425;DHT22;2225;53.568;13.266;2022-11-14T16:26:46;11.60;93.60
4425;DHT22;2225;53.568;13.266;2022-11-14T16:29:31;11.50;93.50
4425;DHT22;2225;53.568;13.266;2022-11-14T16:32:17;11.50;93.40
4425;DHT22;2225;53.568;13.266;2022-11-14T16:35:02;11.50;93.40
4425;DHT22;2225;53.568;13.266;2022-11-14T16:37:48;11.50;93.30
4425;DHT22;2225;53.568;13.266;2022-11-14T16:40:34;11.50;93.30
4425;DHT22;2225;53.568;13.266;2022-11-14T16:43:19;11.50;93.30
4425;DHT22;2225;53.568;13.266;2022-11-14T16:46:05;11.40;93.30
4425;DHT22;2225;53.568;13.266;2022-11-14T16:48:51;11.40;93.30
4425;DHT22;2225;53.568;13.266;2022-11-14T16:51:36;11.40;93.30
4425;DHT22;2225;53.568;13.266;2022-11-14T16:54:33;11.30;93.30
4425;DHT22;2225;53.568;13.266;2022-11-14T16:57:19;11.30;93.40
4425;DHT22;2225;53.568;13.266;2022-11-14T17:00:06;11.20;93.30
4425;DHT22;2225;53.568;13.266;2022-11-14T17:02:53;11.20;93.30
4425;DHT22;2225;53.568;13.266;2022-11-14T17:05:43;11.20;93.30
4425;DHT22;2225;53.568;13.266;2022-11-14T17:08:29;11.10;93.30
4425;DHT22;2225;53.568;13.266;2022-11-14T17:11:15;11.10;93.30
4425;DHT22;2225;53.568;13.266;2022-11-14T17:14:00;11.00;93.30
4425;DHT22;2225;53.568;13.266;2022-11-14T17:16:45;11.00;93.30
4425;DHT22;2225;53.568;13.266;2022-11-14T17:19:31;11.00;93.50
4425;DHT22;2225;53.568;13.266;2022-11-14T17:22:17;10.90;93.60
4425;DHT22;2225;53.568;13.266;2022-11-14T17:25:04;10.80;93.70
4425;DHT22;2225;53.568;13.266;2022-11-14T17:27:50;10.80;93.70
4425;DHT22;2225;53.568;13.266;2022-11-14T17:30:42;10.80;93.90
4425;DHT22;2225;53.568;13.266;2022-11-14T17:33:27;10.70;94.00
4425;DHT22;2225;53.568;13.266;2022-11-14T17:36:13;10.70;94.00
4425;DHT22;2225;53.568;13.266;2022-11-14T17:38:59;10.60;94.00
4425;DHT22;2225;53.568;13.266;2022-11-14T17:41:45;10.60;94.10
4425;DHT22;2225;53.568;13.266;2022-11-14T17:44:30;10.50;94.10
4425;DHT22;2225;53.568;13.266;2022-11-14T17:47:15;10.50;94.10
4425;DHT22;2225;53.568;13.266;2022-11-14T17:50:01;10.40;94.10
4425;DHT22;2225;53.568;13.266;2022-11-14T17:52:46;10.40;94.10
4425;DHT22;2225;53.568;13.266;2022-11-14T17:55:31;10.40;94.10
4425;DHT22;2225;53.568;13.266;2022-11-14T17:58:17;10.40;94.20
4425;DHT22;2225;53.568;13.266;2022-11-14T18:01:12;10.40;94.30
4425;DHT22;2225;53.568;13.266;2022-11-14T18:03:59;10.30;94.40
4425;DHT22;2225;53.568;13.266;2022-11-14T18:06:51;10.30;94.40
4425;DHT22;2225;53.568;13.266;2022-11-14T18:09:37;10.30;94.40
4425;DHT22;2225;53.568;13.266;2022-11-14T18:12:23;10.30;94.40
4425;DHT22;2225;53.568;13.266;2022-11-14T18:15:09;10.20;94.50
4425;DHT22;2225;53.568;13.266;2022-11-14T18:17:55;10.20;94.60
4425;DHT22;2225;53.568;13.266;2022-11-14T18:20:40;10.20;94.60
4425;DHT22;2225;53.568;13.266;2022-11-14T18:23:25;10.20;94.60
4425;DHT22;2225;53.568;13.266;2022-11-14T18:26:12;10.20;94.60
4425;DHT22;2225;53.568;13.266;2022-11-14T18:29:00;10.10;94.50
4425;DHT22;2225;53.568;13.266;2022-11-14T18:31:46;10.10;94.50
4425;DHT22;2225;53.568;13.266;2022-11-14T18:34:32;10.10;94.40
4425;DHT22;2225;53.568;13.266;2022-11-14T18:37:21;10.10;94.40
4425;DHT22;2225;53.568;13.266;2022-11-14T18:40:07;10.10;94.40
4425;DHT22;2225;53.568;13.266;2022-11-14T18:43:00;10.10;94.40
4425;DHT22;2225;53.568;13.266;2022-11-14T18:45:46;10.00;94.30
4425;DHT22;2225;53.568;13.266;2022-11-14T18:48:32;10.00;94.30
4425;DHT22;2225;53.568;13.266;2022-11-14T18:51:20;10.00;94.30
4425;DHT22;2225;53.568;13.266;2022-11-14T18:54:11;10.00;94.30
4425;DHT22;2225;53.568;13.266;2022-11-14T18:56:58;10.00;94.30
4425;DHT22;2225;53.568;13.266;2022-11-14T18:59:44;10.00;94.50
4425;DHT22;2225;53.568;13.266;2022-11-14T19:02:29;9.90;94.50
4425;DHT22;2225;53.568;13.266;2022-11-14T19:05:15;9.90;94.60
4425;DHT22;2225;53.568;13.266;2022-11-14T19:08:01;9.90;94.70
4425;DHT22;2225;53.568;13.266;2022-11-14T19:10:47;9.90;94.70
4425;DHT22;2225;53.568;13.266;2022-11-14T19:13:32;9.90;94.70
4425;DHT22;2225;53.568;13.266;2022-11-14T19:16:18;9.90;94.60
4425;DHT22;2225;53.568;13.266;2022-11-14T19:19:05;9.80;94.60
4425;DHT22;2225;53.568;13.266;2022-11-14T19:21:50;9.80;94.70
4425;DHT22;2225;53.568;13.266;2022-11-14T19:24:35;9.80;94.80
4425;DHT22;2225;53.568;13.266;2022-11-14T19:27:22;9.80;94.90
4425;DHT22;2225;53.568;13.266;2022-11-14T19:30:08;9.80;94.90
4425;DHT22;2225;53.568;13.266;2022-11-14T19:32:53;9.80;94.90
4425;DHT22;2225;53.568;13.266;2022-11-14T19:35:38;9.80;94.90
4425;DHT22;2225;53.568;13.266;2022-11-14T19:38:24;9.80;95.00